Rallye Mare e Machja 2017
Le 10,11, 12 Novembre
1 2 GORDON Jean Pierre/GORDON Fabrice Ford Fiesta R 5 10:11,0 73km/h
2 1 LEANDRI Jean-Mathieu/GORGUILO Anthony Skoda Fabia R 5 10:15,2 +00:04,2 +00:04,2
3 4 PISANO Mickaël/BERTHOLLE Olivier Ford Fiesta R 5 10:25,4 +00:14,4 +00:10,2
4 26 ANDREUCCI Frédéric/LECA Nicolas Renault Clio 16V FA 6K 10:25,4 +00:14,4
5 41 FIORI Jean-Antoine/TAVERA Julien Citroën C2 R2 R 2 10:30,7 +00:19,7 +00:05,3
6 7 LEFEBVRE Frédéric/DINI Gilbert Mitsubishi Evo 9 FA 8 10:35,6 +00:24,6 +00:04,9
7 8 GALEANI Jean-Joseph/LEONARDI Pierre-Marien Mitsubishi Evo 9 R 4 10:39,0 +00:28,0 +00:03,4
8 49 MUSELLI Jean-Philippe/MASSON Elodie Renault Clio FN 3 10:39,6 +00:28,6 +00:00,6
9 40 ALERINI Paul/BARICHELLA Tony Peugeot 208 Vti R 2 10:40,9 +00:29,9 +00:01,3
10 12 LANGIANI Patrick/D'ULIVO Jean-Francois Renault F2 14 10:50,0 +00:39,0 +00:09,1
11 43 SERRA Dominique/BURESI Francois-Xavier Peugeot 208 Vti R 2 10:52,2 +00:41,2 +00:02,2
12 28 VANNUCCI Louis/DE BARTOLO Fabrice Citroën Saxo S1600 FA 6K 10:56,6 +00:45,6 +00:04,4
13 29 GIORGI Fabrice/BEILL Raphaël Peugeot 106 Maxi FA 6K 10:56,8 +00:45,8 +00:00,2
14 50 CHASSAING Philippe/BACCHIOLELLI Jean-Baptiste Renault Clio Ragnotti FN 3 10:57,3 +00:46,3 +00:00,5
15 51 DE LA FOATA Paul/TERRONI Cédric Renault Clio Ragnotti N 3 11:07,7 +00:56,7 +00:10,4
16 14 GAMBARELLI Anghjulu/CASANOVA Miguel Renault Clio F2 14 11:10,9 +00:59,9 +00:03,2
17 57 RASIGNI Romain/JOVER Denis Renault Clio Ragnotti N 3 11:17,9 +01:06,9 +00:07,0
18 52 RENUCCI Pierre-Paul/MAESTRONI Céline Renault Clio Rs Ragnotti N 3 11:20,3 +01:09,3 +00:02,4
19 46 BURESI Adrien/BURESI Romain Peugeot 208 R2 R 2 11:23,8 +01:12,8 +00:03,5
20 58 RENUCCI Antoine/SIMEONI Jean-Marc Renault Clio Ragnotti FN 3 11:25,8 +01:14,8 +00:02,0
21 5 RENUCCI Kathia/PAOLINI Angélique Peugeot 207 S2000 A 7S 11:27,3 +01:16,3 +00:01,5
22 3 MARTINI Jean-Philippe/FIESCHI Ambroise Peugeot 208 T16 R 5 11:29,1 +01:18,1 +00:01,8
23 42 GERONIMI Dominique/GARCIA Dann Citroën C2 Vts R 2 11:31,1 +01:20,1 +00:02,0
24 34 MARIANI Anthony/HELM Vivien Peugeot 206 Xs FA 6K 11:32,9 +01:21,9 +00:01,8
25 45 BUCCI Pierre-Laurent/CAVIGLIOLI Caroline Citroën C2 R2 Max R 2 11:37,8 +01:26,8 +00:04,9
26 10 ROSSI Yannick/VOLPEI Baptiste Mitsubishi Lancer Evo 9 FN 4 11:37,9 +01:26,9 +00:00,1
27 65 LORENZONI Philippe/CATELLAGGI Julie Honda Civic Eg6 FN 2 11:39,5 +01:28,5 +00:01,6
28 54 DE MEYER Jean-Michel/FRATTI Eric Renault Clio Ragnotti N 3 11:40,0 +01:29,0 +00:00,5
29 33 MARCHINI Jean Paul/SIMONETTI Johanna Peugeot 206 Xs A 6K 11:40,9 +01:29,9 +00:00,9
30 47 GIANNINI Eric/GIANNINI Anthony Peugeot 208 R2 R 2 11:43,8 +01:32,8 +00:02,9
31 64 VENTURI Christian/PIERAZZI Arnaud Peugeot 205 Rallye FA 5 11:45,0 +01:34,0 +00:01,2
32 9 CHIARONI Pascal/BRUNELLI Anne-Laure Renault Clio Sport Max R 3 11:48,2 +01:37,2 +00:03,2
33 6 GIOVANNANGELI Jean Baptiste/SANTARELLI Coralie BMW M3 FA 8 11:48,9 +01:37,9 +00:00,7
34 15 FILMONT Jérôme/VIGNOLI Jean-Francois Peugeot 306 S16 F2 14 11:51,5 +01:40,5 +00:02,6
35 59 MARCHETTI Michel/MAUREL Virginie Citroën Saxo Vts F2 13 11:53,0 +01:42,0 +00:01,5
36 68 NIVAGGIONI Jean-Toussaint/PONSOT Sébastien Citroën Saxo Vts FN 2 11:54,5 +01:43,5 +00:01,5
37 44 ANTONA Julien/MANZAGGI Nicolas Citroën C2 R2 Max R 2 11:56,1 +01:45,1 +00:01,6
38 32 BROQUET John/STEFANAGGI Antoine Peugeot 106 S16 A 6K 12:07,0 +01:56,0 +00:10,9
39 61 RENUCCI Antoine/RENUCCI Anthony Peugeot 205 Rallye F2 13 12:07,0 +01:56,0
40 66 MAESTRACCI François/CASANOVA Sébastien Peugeot 106 FN 2 12:19,4 +02:08,4 +00:12,4
41 39 VITTORI Marc-Antoine/PORCU Pascal-Andre Citroën C2 A 6K 12:26,6 +02:15,6 +00:07,2
42 62 SALINI Laura/PERETTI Myriam Citroën Saxo FA 6 12:27,8 +02:16,8 +00:01,2
43 48 PAOLI Benjamin/MOSSA Sebastien Peugeot 208 Vti R 2 12:31,9 +02:20,9 +00:04,1
44 35 MARTINETTI Jean-Laurent/DELCLAUD Christian Peugeot 206 Xs A 6K 12:33,3 +02:22,3 +00:01,4
45 22 RENUCCI Jacques-Andre/RENUCCI Daniel Peugeot 205 Gti F2 14 12:36,1 +02:25,1 +00:02,8
46 23 ROBERT Alexandre/MILIANI Pascal Peugeot 205 F2 14 12:43,0 +02:32,0 +00:06,9
47 72 PAPON Jean-Noel/AMBROSI Céline Citroën Saxo Vts F2 12 12:52,3 +02:41,3 +00:09,3
48 76 NICOLI Gérard/GALTIERI Marie-Flore Citroën Ax Sport FN 1 13:00,8 +02:49,8 +00:08,5
49 17 CALISTRI Jean-Claude/CALISTRI Nicolas Renault 5 Gt Turbo F2 14 13:04,4 +02:53,4 +00:03,6
50 37 CASALTA Cyril/FERRACCI Nicolas Peugeot 206 FA 6K 13:07,6 +02:56,6 +00:03,2
51 67 CASABIANCA Jacques-Francois/PENNACCHIONI Marcel Peugeot 106 S16 FN 2 13:09,0 +02:58,0 +00:01,4
52 74 PINELLI Jean-Pierre/CANEGGIANI Dylan Peugeot 205 Rallye F2 12 13:30,1 +03:19,1 +00:21,1
53 75 TROMBI Philippe/DELATTRE Judicael Peugeot 106 F2 12 13:38,0 +03:27,0 +00:07,9
54 36 GERONIMI Dominique-Noel/QUILICI Anthony Peugeot 106 S16 FA 6K 13:50,7 +03:39,7 +00:12,7
55 38 CADDEO Allan/LOUVEL Jade Peugeot 206 Xs FA 6K 13:52,5 +03:41,5 +00:01,8
56 25 SALVADORI Paul-Joseph/CARRE Jessica Peugeot 205 GTI F2 14 13:54,5 +03:43,5 +00:02,0
57 24 ROSSINI Stefanu/ALTANA Ludovic Renault Clio F2 14 14:00,2 +03:49,2 +00:05,7
58 20 MISERAZZI Fabrice/ROS Patrick Peugeot 205 F2 14 15:59,6 +05:48,6 +01:59,4
Clt Equipage Voiture Gr/Cl Temps Ecart 1er Ecart préc. Catégories
Commentaires: © PatricK Soft  
(Temps forfaitaires=couleur bleue)
Classés:58

Epreuve: Groupe: Catégorie:

 
Retour
Classement ES3-Gradello - Verghia 2 (12.400 km)